sensor_id;sensor_type;location;lat;lon;timestamp;pressure;altitude;pressure_sealevel;temperature;humidity
35704;BME280;21820;51.112;13.762;2023-02-11T00:00:40;100997.34;;;22.19;50.37
35704;BME280;21820;51.112;13.762;2023-02-11T00:03:06;100985.44;;;22.15;49.99
35704;BME280;21820;51.112;13.762;2023-02-11T00:05:32;100984.31;;;22.30;49.78
35704;BME280;21820;51.112;13.762;2023-02-11T00:07:57;100992.88;;;22.44;49.06
35704;BME280;21820;51.112;13.762;2023-02-11T00:10:23;100982.34;;;22.57;48.68
35704;BME280;21820;51.112;13.762;2023-02-11T00:12:48;100982.28;;;22.69;48.75
35704;BME280;21820;51.112;13.762;2023-02-11T00:15:13;100984.97;;;22.80;48.31
35704;BME280;21820;51.112;13.762;2023-02-11T00:17:39;100980.81;;;22.89;48.31
35704;BME280;21820;51.112;13.762;2023-02-11T00:20:05;100975.78;;;22.86;48.23
35704;BME280;21820;51.112;13.762;2023-02-11T00:22:30;100980.53;;;22.81;48.31
35704;BME280;21820;51.112;13.762;2023-02-11T00:24:55;100976.81;;;22.72;48.87
35704;BME280;21820;51.112;13.762;2023-02-11T00:27:21;100960.91;;;22.63;48.65
35704;BME280;21820;51.112;13.762;2023-02-11T00:29:46;100938.03;;;22.54;48.67
35704;BME280;21820;51.112;13.762;2023-02-11T00:32:12;100947.84;;;22.50;49.71
35704;BME280;21820;51.112;13.762;2023-02-11T00:34:37;100938.75;;;22.43;49.29
35704;BME280;21820;51.112;13.762;2023-02-11T00:37:03;100950.56;;;22.38;49.87
35704;BME280;21820;51.112;13.762;2023-02-11T00:39:29;100941.34;;;22.32;49.83
35704;BME280;21820;51.112;13.762;2023-02-11T00:41:55;100939.06;;;22.28;50.06
35704;BME280;21820;51.112;13.762;2023-02-11T00:44:20;100934.25;;;22.22;50.37
35704;BME280;21820;51.112;13.762;2023-02-11T00:46:46;100920.88;;;22.14;50.63
35704;BME280;21820;51.112;13.762;2023-02-11T00:49:11;100922.75;;;22.12;50.83
35704;BME280;21820;51.112;13.762;2023-02-11T00:51:37;100903.00;;;22.08;51.05
35704;BME280;21820;51.112;13.762;2023-02-11T00:54:03;100901.66;;;22.02;50.91
35704;BME280;21820;51.112;13.762;2023-02-11T00:56:30;100909.84;;;21.98;50.78
35704;BME280;21820;51.112;13.762;2023-02-11T00:58:55;100888.91;;;21.98;50.95
35704;BME280;21820;51.112;13.762;2023-02-11T01:01:21;100875.31;;;21.92;50.59
35704;BME280;21820;51.112;13.762;2023-02-11T01:03:46;100883.66;;;21.98;52.03
35704;BME280;21820;51.112;13.762;2023-02-11T01:06:12;100873.19;;;21.98;51.04
35704;BME280;21820;51.112;13.762;2023-02-11T01:08:37;100874.63;;;22.02;51.45
35704;BME280;21820;51.112;13.762;2023-02-11T01:11:07;100873.47;;;22.06;52.07
35704;BME280;21820;51.112;13.762;2023-02-11T01:13:35;100876.47;;;22.12;51.89
35704;BME280;21820;51.112;13.762;2023-02-11T01:16:06;100886.31;;;22.09;51.81
35704;BME280;21820;51.112;13.762;2023-02-11T01:18:32;100888.84;;;22.10;52.39
35704;BME280;21820;51.112;13.762;2023-02-11T01:20:58;100895.13;;;22.08;52.63
35704;BME280;21820;51.112;13.762;2023-02-11T01:23:23;100893.69;;;22.04;52.55
35704;BME280;21820;51.112;13.762;2023-02-11T01:25:49;100898.16;;;22.14;52.71
35704;BME280;21820;51.112;13.762;2023-02-11T01:28:23;100903.50;;;22.13;52.32
35704;BME280;21820;51.112;13.762;2023-02-11T01:30:49;100892.44;;;22.20;53.32
35704;BME280;21820;51.112;13.762;2023-02-11T01:33:15;100898.19;;;22.25;53.63
35704;BME280;21820;51.112;13.762;2023-02-11T01:35:40;100901.38;;;22.18;51.47
35704;BME280;21820;51.112;13.762;2023-02-11T01:38:07;100891.34;;;22.12;51.20
35704;BME280;21820;51.112;13.762;2023-02-11T01:40:37;100891.06;;;22.04;50.79
35704;BME280;21820;51.112;13.762;2023-02-11T01:43:03;100882.47;;;22.02;50.71
35704;BME280;21820;51.112;13.762;2023-02-11T01:48:13;100871.38;;;22.22;49.99
35704;BME280;21820;51.112;13.762;2023-02-11T01:50:41;100862.13;;;22.29;49.49
35704;BME280;21820;51.112;13.762;2023-02-11T01:53:08;100851.41;;;22.32;49.70
35704;BME280;21820;51.112;13.762;2023-02-11T01:55:53;100865.56;;;22.53;49.13
35704;BME280;21820;51.112;13.762;2023-02-11T01:58:40;100855.38;;;22.61;48.95
35704;BME280;21820;51.112;13.762;2023-02-11T02:01:10;100852.03;;;22.70;48.84
35704;BME280;21820;51.112;13.762;2023-02-11T02:03:38;100842.16;;;22.73;48.75
35704;BME280;21820;51.112;13.762;2023-02-11T02:06:11;100847.53;;;22.72;48.56
35704;BME280;21820;51.112;13.762;2023-02-11T02:08:42;100856.66;;;22.66;48.98
35704;BME280;21820;51.112;13.762;2023-02-11T02:11:09;100854.63;;;22.59;49.21
35704;BME280;21820;51.112;13.762;2023-02-11T02:13:35;100856.25;;;22.49;49.32
35704;BME280;21820;51.112;13.762;2023-02-11T02:37:47;100811.47;;;21.82;50.68
35704;BME280;21820;51.112;13.762;2023-02-11T02:40:19;100831.13;;;21.88;51.36
35704;BME280;21820;51.112;13.762;2023-02-11T02:42:46;100835.41;;;21.89;51.22
35704;BME280;21820;51.112;13.762;2023-02-11T02:45:12;100820.66;;;21.88;51.02
35704;BME280;21820;51.112;13.762;2023-02-11T02:47:38;100798.81;;;21.76;51.66
35704;BME280;21820;51.112;13.762;2023-02-11T02:50:05;100824.28;;;21.98;52.24
35704;BME280;21820;51.112;13.762;2023-02-11T02:52:44;100827.72;;;21.98;53.08
35704;BME280;21820;51.112;13.762;2023-02-11T02:55:14;100820.13;;;22.07;51.65
35704;BME280;21820;51.112;13.762;2023-02-11T02:57:54;100818.97;;;22.11;52.27
35704;BME280;21820;51.112;13.762;2023-02-11T03:00:32;100827.53;;;22.13;52.85
35704;BME280;21820;51.112;13.762;2023-02-11T03:05:42;100837.75;;;22.05;51.36
35704;BME280;21820;51.112;13.762;2023-02-11T03:08:48;100835.16;;;22.16;54.26
35704;BME280;21820;51.112;13.762;2023-02-11T03:11:17;100846.53;;;22.04;51.15
35704;BME280;21820;51.112;13.762;2023-02-11T03:13:45;100832.56;;;21.92;50.61
35704;BME280;21820;51.112;13.762;2023-02-11T03:16:15;100833.19;;;21.95;50.67
35704;BME280;21820;51.112;13.762;2023-02-11T03:18:49;100816.19;;;22.01;50.69
35704;BME280;21820;51.112;13.762;2023-02-11T03:21:17;100815.19;;;22.15;50.59
35704;BME280;21820;51.112;13.762;2023-02-11T03:23:49;100804.50;;;22.29;49.63
35704;BME280;21820;51.112;13.762;2023-02-11T03:26:37;100798.47;;;22.39;49.31
35704;BME280;21820;51.112;13.762;2023-02-11T03:34:14;100797.09;;;22.68;48.30
35704;BME280;21820;51.112;13.762;2023-02-11T03:36:44;100791.25;;;22.76;48.51
35704;BME280;21820;51.112;13.762;2023-02-11T03:39:23;100794.13;;;22.73;48.46
35704;BME280;21820;51.112;13.762;2023-02-11T03:41:54;100782.22;;;22.69;48.99
35704;BME280;21820;51.112;13.762;2023-02-11T03:44:21;100769.91;;;22.58;49.21
35704;BME280;21820;51.112;13.762;2023-02-11T03:46:50;100759.81;;;22.54;49.49
35704;BME280;21820;51.112;13.762;2023-02-11T03:49:17;100775.25;;;22.46;49.38
35704;BME280;21820;51.112;13.762;2023-02-11T03:51:44;100767.94;;;22.38;49.34
35704;BME280;21820;51.112;13.762;2023-02-11T03:54:14;100769.47;;;22.30;49.98
35704;BME280;21820;51.112;13.762;2023-02-11T03:56:48;100761.34;;;22.22;50.42
35704;BME280;21820;51.112;13.762;2023-02-11T03:59:15;100738.25;;;22.05;50.11
35704;BME280;21820;51.112;13.762;2023-02-11T04:01:41;100763.22;;;22.09;49.97
35704;BME280;21820;51.112;13.762;2023-02-11T04:04:06;100764.53;;;22.03;50.35
35704;BME280;21820;51.112;13.762;2023-02-11T04:06:31;100765.59;;;22.01;50.64
35704;BME280;21820;51.112;13.762;2023-02-11T04:08:57;100755.69;;;21.93;51.01
35704;BME280;21820;51.112;13.762;2023-02-11T04:11:22;100757.72;;;21.89;51.08
35704;BME280;21820;51.112;13.762;2023-02-11T04:13:47;100760.75;;;21.83;51.34
35704;BME280;21820;51.112;13.762;2023-02-11T04:16:13;100771.22;;;21.83;50.59
35704;BME280;21820;51.112;13.762;2023-02-11T04:18:38;100772.31;;;21.81;50.76
35704;BME280;21820;51.112;13.762;2023-02-11T04:21:04;100773.16;;;21.81;51.23
35704;BME280;21820;51.112;13.762;2023-02-11T04:23:29;100767.69;;;21.84;51.55
35704;BME280;21820;51.112;13.762;2023-02-11T04:25:54;100763.19;;;21.86;53.17
35704;BME280;21820;51.112;13.762;2023-02-11T04:28:20;100760.94;;;21.93;52.56
35704;BME280;21820;51.112;13.762;2023-02-11T04:30:45;100765.09;;;21.95;51.56
35704;BME280;21820;51.112;13.762;2023-02-11T04:33:12;100773.91;;;21.94;52.72
35704;BME280;21820;51.112;13.762;2023-02-11T04:35:38;100772.09;;;21.95;52.81
35704;BME280;21820;51.112;13.762;2023-02-11T04:38:03;100765.44;;;21.91;51.28
35704;BME280;21820;51.112;13.762;2023-02-11T04:40:28;100763.34;;;22.07;50.14
35704;BME280;21820;51.112;13.762;2023-02-11T04:42:54;100774.03;;;22.39;49.51
35704;BME280;21820;51.112;13.762;2023-02-11T04:45:19;100777.91;;;22.68;48.37
35704;BME280;21820;51.112;13.762;2023-02-11T04:47:45;100775.06;;;22.93;48.08
35704;BME280;21820;51.112;13.762;2023-02-11T04:50:10;100774.34;;;23.13;47.71
35704;BME280;21820;51.112;13.762;2023-02-11T04:52:35;100773.38;;;23.25;47.35
35704;BME280;21820;51.112;13.762;2023-02-11T04:55:00;100777.31;;;23.31;47.26
35704;BME280;21820;51.112;13.762;2023-02-11T04:57:26;100776.34;;;23.43;46.86
35704;BME280;21820;51.112;13.762;2023-02-11T04:59:51;100774.31;;;23.46;46.31
35704;BME280;21820;51.112;13.762;2023-02-11T05:02:17;100768.56;;;23.52;46.80
35704;BME280;21820;51.112;13.762;2023-02-11T05:04:42;100780.25;;;23.59;46.67
35704;BME280;21820;51.112;13.762;2023-02-11T05:07:07;100773.09;;;23.61;46.87
35704;BME280;21820;51.112;13.762;2023-02-11T05:09:32;100776.75;;;23.70;46.60
35704;BME280;21820;51.112;13.762;2023-02-11T05:11:58;100774.59;;;23.75;45.87
35704;BME280;21820;51.112;13.762;2023-02-11T05:14:23;100772.66;;;23.77;46.55
35704;BME280;21820;51.112;13.762;2023-02-11T05:16:48;100768.00;;;23.80;46.44
35704;BME280;21820;51.112;13.762;2023-02-11T05:19:14;100773.56;;;23.87;45.99
35704;BME280;21820;51.112;13.762;2023-02-11T05:21:39;100775.84;;;23.91;45.90
35704;BME280;21820;51.112;13.762;2023-02-11T05:24:06;100776.53;;;23.93;45.91
35704;BME280;21820;51.112;13.762;2023-02-11T05:26:31;100783.81;;;24.01;45.34
35704;BME280;21820;51.112;13.762;2023-02-11T05:28:57;100777.25;;;24.06;45.58
35704;BME280;21820;51.112;13.762;2023-02-11T05:31:22;100765.25;;;24.13;45.39
35704;BME280;21820;51.112;13.762;2023-02-11T05:33:47;100764.53;;;24.11;45.60
35704;BME280;21820;51.112;13.762;2023-02-11T05:36:13;100742.63;;;24.01;45.08
35704;BME280;21820;51.112;13.762;2023-02-11T05:38:38;100753.38;;;23.98;46.01
35704;BME280;21820;51.112;13.762;2023-02-11T05:41:05;100748.16;;;23.87;45.57
35704;BME280;21820;51.112;13.762;2023-02-11T05:43:31;100753.94;;;23.70;46.09
35704;BME280;21820;51.112;13.762;2023-02-11T05:45:56;100750.66;;;23.57;47.03
35704;BME280;21820;51.112;13.762;2023-02-11T05:48:22;100749.72;;;23.47;47.23
35704;BME280;21820;51.112;13.762;2023-02-11T05:50:47;100746.53;;;23.33;47.35
35704;BME280;21820;51.112;13.762;2023-02-11T05:53:13;100749.16;;;23.21;47.83
35704;BME280;21820;51.112;13.762;2023-02-11T05:55:38;100754.53;;;23.09;48.28
35704;BME280;21820;51.112;13.762;2023-02-11T05:58:04;100756.69;;;23.04;47.82
35704;BME280;21820;51.112;13.762;2023-02-11T06:00:30;100746.19;;;23.04;48.03
35704;BME280;21820;51.112;13.762;2023-02-11T06:02:55;100738.78;;;23.09;48.41
35704;BME280;21820;51.112;13.762;2023-02-11T06:05:20;100749.75;;;23.14;47.83
35704;BME280;21820;51.112;13.762;2023-02-11T06:07:46;100731.75;;;23.20;47.66
35704;BME280;21820;51.112;13.762;2023-02-11T06:10:11;100731.91;;;23.30;47.75
35704;BME280;21820;51.112;13.762;2023-02-11T06:12:37;100716.38;;;23.27;47.75
35704;BME280;21820;51.112;13.762;2023-02-11T06:15:04;100732.56;;;23.43;47.02
35704;BME280;21820;51.112;13.762;2023-02-11T06:17:29;100729.81;;;23.45;47.26
35704;BME280;21820;51.112;13.762;2023-02-11T06:19:59;100725.63;;;23.53;47.17
35704;BME280;21820;51.112;13.762;2023-02-11T06:22:27;100724.41;;;23.57;46.74
35704;BME280;21820;51.112;13.762;2023-02-11T06:24:52;100716.97;;;23.62;46.43
35704;BME280;21820;51.112;13.762;2023-02-11T06:27:18;100715.06;;;23.64;46.44
35704;BME280;21820;51.112;13.762;2023-02-11T06:29:44;100716.66;;;23.56;46.97
35704;BME280;21820;51.112;13.762;2023-02-11T06:32:10;100709.41;;;23.48;47.24
35704;BME280;21820;51.112;13.762;2023-02-11T06:34:35;100722.06;;;23.43;47.50
35704;BME280;21820;51.112;13.762;2023-02-11T06:37:01;100722.09;;;23.32;47.06
35704;BME280;21820;51.112;13.762;2023-02-11T06:39:27;100716.84;;;23.21;47.88
35704;BME280;21820;51.112;13.762;2023-02-11T06:41:52;100714.50;;;23.07;48.08
35704;BME280;21820;51.112;13.762;2023-02-11T06:44:17;100723.81;;;23.00;48.56
35704;BME280;21820;51.112;13.762;2023-02-11T06:46:43;100722.16;;;22.99;48.61
35704;BME280;21820;51.112;13.762;2023-02-11T06:49:08;100719.16;;;23.03;48.47
35704;BME280;21820;51.112;13.762;2023-02-11T06:51:33;100712.69;;;23.07;47.68
35704;BME280;21820;51.112;13.762;2023-02-11T06:53:59;100716.50;;;23.14;47.63
35704;BME280;21820;51.112;13.762;2023-02-11T06:56:24;100698.47;;;23.21;47.55
35704;BME280;21820;51.112;13.762;2023-02-11T06:58:55;100709.44;;;23.26;47.14
35704;BME280;21820;51.112;13.762;2023-02-11T07:01:21;100704.19;;;23.37;47.09
35704;BME280;21820;51.112;13.762;2023-02-11T07:03:47;100689.84;;;23.41;46.83
35704;BME280;21820;51.112;13.762;2023-02-11T07:06:21;100685.06;;;23.46;46.59
35704;BME280;21820;51.112;13.762;2023-02-11T07:08:47;100690.13;;;23.59;47.02
35704;BME280;21820;51.112;13.762;2023-02-11T07:11:16;100701.22;;;23.62;46.41
35704;BME280;21820;51.112;13.762;2023-02-11T07:13:42;100704.56;;;23.64;46.20
35704;BME280;21820;51.112;13.762;2023-02-11T07:16:11;100705.88;;;23.59;46.14
35704;BME280;21820;51.112;13.762;2023-02-11T07:18:36;100714.53;;;23.50;46.03
35704;BME280;21820;51.112;13.762;2023-02-11T07:21:11;100728.38;;;23.41;46.93
35704;BME280;21820;51.112;13.762;2023-02-11T07:23:37;100703.72;;;23.21;47.43
35704;BME280;21820;51.112;13.762;2023-02-11T07:26:03;100725.69;;;23.20;47.21
35704;BME280;21820;51.112;13.762;2023-02-11T07:28:29;100729.16;;;23.09;47.35
35704;BME280;21820;51.112;13.762;2023-02-11T07:30:55;100730.69;;;23.01;47.33
35704;BME280;21820;51.112;13.762;2023-02-11T07:33:20;100738.44;;;23.02;47.40
35704;BME280;21820;51.112;13.762;2023-02-11T07:35:45;100737.63;;;23.02;47.38
35704;BME280;21820;51.112;13.762;2023-02-11T07:38:11;100736.91;;;23.11;47.53
35704;BME280;21820;51.112;13.762;2023-02-11T07:40:36;100724.38;;;23.14;46.81
35704;BME280;21820;51.112;13.762;2023-02-11T07:43:01;100726.66;;;23.30;47.22
35704;BME280;21820;51.112;13.762;2023-02-11T07:45:27;100725.88;;;23.39;46.60
35704;BME280;21820;51.112;13.762;2023-02-11T07:47:52;100726.22;;;23.46;46.44
35704;BME280;21820;51.112;13.762;2023-02-11T07:50:18;100733.25;;;23.56;46.06
35704;BME280;21820;51.112;13.762;2023-02-11T07:52:43;100732.59;;;23.64;46.05
35704;BME280;21820;51.112;13.762;2023-02-11T07:55:08;100737.25;;;23.71;45.64
35704;BME280;21820;51.112;13.762;2023-02-11T07:57:34;100735.06;;;23.76;45.91
35704;BME280;21820;51.112;13.762;2023-02-11T08:00:00;100735.78;;;23.78;45.67
35704;BME280;21820;51.112;13.762;2023-02-11T08:02:25;100740.81;;;23.70;45.73
35704;BME280;21820;51.112;13.762;2023-02-11T08:04:50;100753.72;;;23.62;45.80
35704;BME280;21820;51.112;13.762;2023-02-11T08:07:16;100737.06;;;23.52;46.11
35704;BME280;21820;51.112;13.762;2023-02-11T08:09:42;100739.72;;;23.41;46.52
35704;BME280;21820;51.112;13.762;2023-02-11T08:12:07;100730.44;;;23.26;47.27
35704;BME280;21820;51.112;13.762;2023-02-11T08:14:33;100739.97;;;23.16;47.54
35704;BME280;21820;51.112;13.762;2023-02-11T08:16:58;100738.31;;;23.04;47.97
35704;BME280;21820;51.112;13.762;2023-02-11T08:19:23;100745.38;;;23.03;48.19
35704;BME280;21820;51.112;13.762;2023-02-11T08:21:49;100743.47;;;23.05;48.38
35704;BME280;21820;51.112;13.762;2023-02-11T08:24:14;100736.91;;;23.11;47.66
35704;BME280;21820;51.112;13.762;2023-02-11T08:26:41;100725.69;;;23.20;47.94
35704;BME280;21820;51.112;13.762;2023-02-11T08:29:11;100736.88;;;23.33;47.21
35704;BME280;21820;51.112;13.762;2023-02-11T08:31:40;100723.97;;;23.41;47.08
35704;BME280;21820;51.112;13.762;2023-02-11T08:34:05;100727.78;;;23.48;47.13
35704;BME280;21820;51.112;13.762;2023-02-11T08:36:33;100715.81;;;23.55;46.40
35704;BME280;21820;51.112;13.762;2023-02-11T08:39:01;100748.47;;;23.62;45.94
35704;BME280;21820;51.112;13.762;2023-02-11T08:41:30;100721.75;;;23.68;46.39
35704;BME280;21820;51.112;13.762;2023-02-11T08:43:55;100722.66;;;23.78;45.58
35704;BME280;21820;51.112;13.762;2023-02-11T08:46:21;100713.16;;;23.66;45.60
35704;BME280;21820;51.112;13.762;2023-02-11T08:48:46;100722.69;;;23.67;45.86
35704;BME280;21820;51.112;13.762;2023-02-11T08:51:14;100723.81;;;23.54;45.78
35704;BME280;21820;51.112;13.762;2023-02-11T08:53:40;100729.69;;;23.46;46.27
35704;BME280;21820;51.112;13.762;2023-02-11T08:56:05;100716.59;;;23.24;46.61
35704;BME280;21820;51.112;13.762;2023-02-11T08:58:32;100730.81;;;23.21;46.70
35704;BME280;21820;51.112;13.762;2023-02-11T09:00:57;100730.00;;;23.10;47.06
35704;BME280;21820;51.112;13.762;2023-02-11T09:03:23;100730.25;;;23.07;47.56
35704;BME280;21820;51.112;13.762;2023-02-11T09:05:49;100732.16;;;23.05;47.46
35704;BME280;21820;51.112;13.762;2023-02-11T09:08:17;100744.03;;;23.09;47.38
35704;BME280;21820;51.112;13.762;2023-02-11T09:10:42;100736.66;;;23.14;47.40
35704;BME280;21820;51.112;13.762;2023-02-11T09:13:08;100715.44;;;23.17;47.18
35704;BME280;21820;51.112;13.762;2023-02-11T09:15:34;100727.47;;;23.31;46.82
35704;BME280;21820;51.112;13.762;2023-02-11T09:18:00;100726.34;;;23.44;46.73
35704;BME280;21820;51.112;13.762;2023-02-11T09:20:26;100734.56;;;23.51;46.66
35704;BME280;21820;51.112;13.762;2023-02-11T09:22:52;100740.16;;;23.57;46.50
35704;BME280;21820;51.112;13.762;2023-02-11T09:25:18;100730.09;;;23.62;46.24
35704;BME280;21820;51.112;13.762;2023-02-11T09:27:43;100741.66;;;23.71;45.71
35704;BME280;21820;51.112;13.762;2023-02-11T09:30:09;100749.00;;;23.77;45.58
35704;BME280;21820;51.112;13.762;2023-02-11T09:32:35;100768.50;;;23.74;44.96
35704;BME280;21820;51.112;13.762;2023-02-11T09:35:00;100756.22;;;23.64;45.96
35704;BME280;21820;51.112;13.762;2023-02-11T09:37:25;100752.00;;;23.52;45.38
35704;BME280;21820;51.112;13.762;2023-02-11T09:39:51;100765.47;;;23.47;45.41
35704;BME280;21820;51.112;13.762;2023-02-11T09:43:02;100760.38;;;23.35;46.11
35704;BME280;21820;51.112;13.762;2023-02-11T09:45:27;100753.09;;;23.27;46.81
35704;BME280;21820;51.112;13.762;2023-02-11T09:47:56;100752.38;;;23.14;46.37
35704;BME280;21820;51.112;13.762;2023-02-11T09:50:38;100755.75;;;23.05;47.23
35704;BME280;21820;51.112;13.762;2023-02-11T09:53:21;100762.78;;;23.04;47.19
35704;BME280;21820;51.112;13.762;2023-02-11T09:55:51;100761.72;;;23.07;46.85
35704;BME280;21820;51.112;13.762;2023-02-11T09:58:34;100751.44;;;23.04;47.25
35704;BME280;21820;51.112;13.762;2023-02-11T10:01:14;100740.03;;;22.94;47.48
35704;BME280;21820;51.112;13.762;2023-02-11T10:22:59;100739.53;;;23.00;47.65
35704;BME280;21820;51.112;13.762;2023-02-11T10:25:34;100729.63;;;23.14;47.11
35704;BME280;21820;51.112;13.762;2023-02-11T10:28:10;100729.03;;;23.22;46.27
35704;BME280;21820;51.112;13.762;2023-02-11T10:30:40;100717.09;;;23.18;46.56
35704;BME280;21820;51.112;13.762;2023-02-11T10:33:23;100734.16;;;23.12;46.89
35704;BME280;21820;51.112;13.762;2023-02-11T10:35:50;100742.63;;;23.05;47.33
35704;BME280;21820;51.112;13.762;2023-02-11T10:38:15;100755.78;;;22.94;47.02
35704;BME280;21820;51.112;13.762;2023-02-11T10:40:41;100743.84;;;22.79;47.46
35704;BME280;21820;51.112;13.762;2023-02-11T10:43:10;100742.63;;;22.83;47.80
35704;BME280;21820;51.112;13.762;2023-02-11T10:45:42;100733.34;;;22.90;47.49
35704;BME280;21820;51.112;13.762;2023-02-11T10:48:50;100743.72;;;22.91;47.72
35704;BME280;21820;51.112;13.762;2023-02-11T10:51:26;100729.06;;;22.78;47.87
35704;BME280;21820;51.112;13.762;2023-02-11T10:56:45;100722.41;;;22.74;47.61
35704;BME280;21820;51.112;13.762;2023-02-11T10:59:27;100726.91;;;22.83;47.62
35704;BME280;21820;51.112;13.762;2023-02-11T11:01:57;100733.09;;;22.93;47.49
35704;BME280;21820;51.112;13.762;2023-02-11T11:07:19;100727.84;;;23.15;47.35
35704;BME280;21820;51.112;13.762;2023-02-11T11:10:00;100729.03;;;23.33;46.70
35704;BME280;21820;51.112;13.762;2023-02-11T11:12:46;100718.59;;;23.43;46.67
35704;BME280;21820;51.112;13.762;2023-02-11T11:15:23;100721.81;;;23.46;46.35
35704;BME280;21820;51.112;13.762;2023-02-11T11:18:09;100726.09;;;23.58;45.73
35704;BME280;21820;51.112;13.762;2023-02-11T11:20:35;100727.94;;;23.67;45.71
35704;BME280;21820;51.112;13.762;2023-02-11T11:23:09;100726.41;;;23.65;45.80
35704;BME280;21820;51.112;13.762;2023-02-11T11:25:38;100723.59;;;23.57;46.31
35704;BME280;21820;51.112;13.762;2023-02-11T11:28:05;100725.16;;;23.48;46.26
35704;BME280;21820;51.112;13.762;2023-02-11T11:30:41;100731.97;;;23.40;46.81
35704;BME280;21820;51.112;13.762;2023-02-11T11:33:20;100731.41;;;23.25;46.54
35704;BME280;21820;51.112;13.762;2023-02-11T11:38:24;100727.97;;;23.02;47.79
35704;BME280;21820;51.112;13.762;2023-02-11T11:41:16;100721.19;;;22.89;47.37
35704;BME280;21820;51.112;13.762;2023-02-11T11:46:32;100721.19;;;22.89;47.63
35704;BME280;21820;51.112;13.762;2023-02-11T11:49:04;100724.06;;;22.97;47.36
35704;BME280;21820;51.112;13.762;2023-02-11T11:51:32;100740.84;;;23.05;47.87
35704;BME280;21820;51.112;13.762;2023-02-11T11:54:08;100732.59;;;23.21;46.90
35704;BME280;21820;51.112;13.762;2023-02-11T11:56:41;100742.13;;;23.33;46.73
35704;BME280;21820;51.112;13.762;2023-02-11T11:59:12;100740.69;;;23.40;47.12
35704;BME280;21820;51.112;13.762;2023-02-11T12:07:22;100742.09;;;23.76;45.98
35704;BME280;21820;51.112;13.762;2023-02-11T12:12:43;100722.63;;;23.58;46.04
35704;BME280;21820;51.112;13.762;2023-02-11T12:18:42;100724.22;;;23.38;46.97
35704;BME280;21820;51.112;13.762;2023-02-11T12:21:18;100724.47;;;23.24;47.35
35704;BME280;21820;51.112;13.762;2023-02-11T12:26:31;100711.88;;;22.96;47.83
35704;BME280;21820;51.112;13.762;2023-02-11T12:31:34;100738.56;;;23.12;48.59
35704;BME280;21820;51.112;13.762;2023-02-11T12:34:13;100724.25;;;23.16;48.60
35704;BME280;21820;51.112;13.762;2023-02-11T12:39:42;100737.47;;;23.37;48.33
35704;BME280;21820;51.112;13.762;2023-02-11T12:42:33;100733.50;;;23.42;47.53
35704;BME280;21820;51.112;13.762;2023-02-11T12:48:20;100739.69;;;23.52;47.10
35704;BME280;21820;51.112;13.762;2023-02-11T12:51:11;100729.66;;;23.57;47.47
35704;BME280;21820;51.112;13.762;2023-02-11T12:53:50;100725.31;;;23.67;46.77
35704;BME280;21820;51.112;13.762;2023-02-11T12:56:40;100725.97;;;23.80;46.26
35704;BME280;21820;51.112;13.762;2023-02-11T12:59:16;100727.28;;;23.54;44.53
35704;BME280;21820;51.112;13.762;2023-02-11T13:01:46;100729.22;;;23.41;44.70
35704;BME280;21820;51.112;13.762;2023-02-11T13:04:34;100702.06;;;23.31;45.54
35704;BME280;21820;51.112;13.762;2023-02-11T13:07:03;100712.06;;;23.37;45.38
35704;BME280;21820;51.112;13.762;2023-02-11T13:09:53;100704.19;;;23.26;46.65
35704;BME280;21820;51.112;13.762;2023-02-11T13:12:22;100700.84;;;23.24;46.78
35704;BME280;21820;51.112;13.762;2023-02-11T13:15:13;100705.16;;;23.14;46.74
35704;BME280;21820;51.112;13.762;2023-02-11T13:17:45;100696.13;;;23.07;47.69
35704;BME280;21820;51.112;13.762;2023-02-11T13:20:31;100691.34;;;23.01;47.72
35704;BME280;21820;51.112;13.762;2023-02-11T13:30:50;100692.75;;;23.16;47.12
35704;BME280;21820;51.112;13.762;2023-02-11T13:33:36;100693.47;;;23.29;46.84
35704;BME280;21820;51.112;13.762;2023-02-11T13:38:30;100683.91;;;23.39;45.62
35704;BME280;21820;51.112;13.762;2023-02-11T13:41:03;100682.91;;;23.51;45.67
35704;BME280;21820;51.112;13.762;2023-02-11T13:43:31;100687.56;;;23.48;44.89
35704;BME280;21820;51.112;13.762;2023-02-11T13:46:01;100685.59;;;23.40;44.79
35704;BME280;21820;51.112;13.762;2023-02-11T13:48:31;100678.41;;;23.42;44.76
35704;BME280;21820;51.112;13.762;2023-02-11T13:51:10;100684.41;;;23.33;45.60
35704;BME280;21820;51.112;13.762;2023-02-11T13:56:12;100685.34;;;23.21;46.34
35704;BME280;21820;51.112;13.762;2023-02-11T13:58:48;100680.75;;;23.13;46.77
35704;BME280;21820;51.112;13.762;2023-02-11T14:04:18;100692.31;;;23.00;47.76
35704;BME280;21820;51.112;13.762;2023-02-11T14:13:18;100694.19;;;23.09;47.75
35704;BME280;21820;51.112;13.762;2023-02-11T14:15:46;100680.88;;;23.12;47.22
35704;BME280;21820;51.112;13.762;2023-02-11T14:23:36;100697.00;;;23.50;46.89
35704;BME280;21820;51.112;13.762;2023-02-11T14:28:58;100699.06;;;23.67;46.08
35704;BME280;21820;51.112;13.762;2023-02-11T14:31:37;100702.91;;;23.63;46.60
35704;BME280;21820;51.112;13.762;2023-02-11T14:34:07;100706.34;;;23.64;46.77
35704;BME280;21820;51.112;13.762;2023-02-11T14:36:53;100681.16;;;23.41;47.33
35704;BME280;21820;51.112;13.762;2023-02-11T14:39:28;100707.13;;;23.44;47.61
35704;BME280;21820;51.112;13.762;2023-02-11T14:41:59;100705.16;;;23.36;47.54
35704;BME280;21820;51.112;13.762;2023-02-11T14:44:27;100707.31;;;23.31;47.88
35704;BME280;21820;51.112;13.762;2023-02-11T14:46:55;100708.03;;;23.22;48.55